Terminal Aerodrome Forecast
Issued by NWS Charleston, WV

Current Version | Previous Version | Text Only | Print | Product List | Glossary Off
Versions: 1 2 3 4 5 6 7 8 9 10 11 12 13 14 15 16 17 18 19 20 21 22 23 24 25 26 27

185
FTUS41 KRLX 140257 AAA
TAFBKW
TAF AMD
KBKW 140257Z 1403/1424 03003KT 1/2SM FG OVC002
     FM140500 13003KT 2SM -RA BR OVC004
     FM140700 14010KT 1/2SM -RA FG OVC002
     FM141600 18005KT 3SM -RA BR OVC006=

USA.gov is the U.S. government's official web portal to all federal, state and local government web resources and services.